Time;durP1;ratioP1;P1;durP2;ratioP2;P2;SDS_P1;SDS_P2;PMS_P1;PMS_P2;Temp;Humidity;BMP_temperature;BMP_pressure;BME280_temperature;BME280_humidity;BME280_pressure;Samples;Min_cycle;Max_cycle;Signal;HPM_P1;HPM_P2
2021/11/29 00:00:38;;;;;;;7.80;2.65;;;10.10;83.40;;;;;;5073916;28;20032;-77
2021/11/29 00:03:08;;;;;;;8.30;3.00;;;10.10;82.90;;;;;;5073984;28;20024;-77
2021/11/29 00:05:34;;;;;;;6.60;2.67;;;10.20;82.90;;;;;;5074962;28;20101;-78
2021/11/29 00:08:02;;;;;;;7.72;3.10;;;10.20;83.00;;;;;;5074823;28;20482;-77
2021/11/29 00:10:28;;;;;;;6.38;2.55;;;10.20;83.00;;;;;;5073815;28;20033;-77
2021/11/29 00:12:54;;;;;;;8.43;2.90;;;10.20;83.10;;;;;;5074822;28;20017;-77
2021/11/29 00:15:21;;;;;;;7.38;2.75;;;10.20;83.40;;;;;;5073593;28;20073;-77
2021/11/29 00:17:47;;;;;;;8.23;3.05;;;10.10;83.60;;;;;;5073441;28;20021;-77
2021/11/29 00:20:13;;;;;;;7.55;2.90;;;10.00;83.70;;;;;;5073493;28;20032;-77
2021/11/29 00:22:39;;;;;;;6.32;2.70;;;10.00;83.80;;;;;;5073413;28;20028;-78
2021/11/29 00:25:06;;;;;;;7.20;3.03;;;10.10;84.00;;;;;;5074648;28;20024;-77
2021/11/29 00:27:33;;;;;;;4.95;2.72;;;10.00;84.10;;;;;;5073020;28;20040;-77
2021/11/29 00:29:58;;;;;;;7.15;2.92;;;10.00;84.10;;;;;;5074512;28;20025;-77
2021/11/29 00:32:24;;;;;;;6.50;3.00;;;10.10;84.30;;;;;;5073200;28;20025;-78
2021/11/29 00:34:50;;;;;;;4.75;2.55;;;10.00;84.20;;;;;;5073287;28;20059;-77
2021/11/29 00:37:16;;;;;;;8.40;2.72;;;9.90;84.10;;;;;;5072601;28;20020;-76
2021/11/29 00:39:42;;;;;;;6.97;2.72;;;10.00;84.20;;;;;;5074303;28;20042;-77
2021/11/29 00:42:07;;;;;;;10.02;3.05;;;9.90;84.10;;;;;;5074280;28;20498;-78
2021/11/29 00:44:33;;;;;;;7.22;3.08;;;10.00;84.20;;;;;;5073238;28;20454;-78
2021/11/29 00:46:59;;;;;;;5.10;2.75;;;10.00;84.20;;;;;;5073875;28;20016;-77
2021/11/29 00:49:24;;;;;;;7.88;3.20;;;10.00;84.20;;;;;;5074303;28;20020;-76
2021/11/29 00:51:50;;;;;;;10.55;3.00;;;9.80;84.00;;;;;;5072884;28;20029;-77
2021/11/29 00:54:16;;;;;;;5.88;2.75;;;10.10;84.20;;;;;;5074217;28;20021;-77
2021/11/29 00:56:42;;;;;;;7.38;2.90;;;9.90;84.10;;;;;;5072437;28;20486;-77
2021/11/29 00:59:08;;;;;;;6.90;2.70;;;10.00;84.10;;;;;;5072796;28;20073;-77
2021/11/29 01:01:35;;;;;;;8.10;3.10;;;10.00;84.10;;;;;;5072732;28;20486;-77
2021/11/29 01:04:00;;;;;;;5.18;2.83;;;10.00;84.10;;;;;;5072588;28;20623;-77
2021/11/29 01:06:26;;;;;;;6.53;2.80;;;10.00;84.10;;;;;;5072531;28;20115;-77
2021/11/29 01:08:51;;;;;;;6.05;2.78;;;10.00;84.10;;;;;;5072245;28;20030;-77
2021/11/29 01:11:17;;;;;;;5.50;2.70;;;10.00;84.10;;;;;;5073622;28;20367;-77
2021/11/29 01:13:43;;;;;;;6.20;2.75;;;10.00;84.00;;;;;;5072573;28;20028;-77
2021/11/29 01:16:09;;;;;;;4.68;2.90;;;10.00;84.00;;;;;;5072401;28;20563;-77
2021/11/29 01:18:35;;;;;;;5.38;2.70;;;10.10;84.10;;;;;;5073476;28;20442;-77
2021/11/29 01:21:01;;;;;;;5.55;2.92;;;10.00;84.00;;;;;;5072399;28;20029;-77
2021/11/29 01:23:26;;;;;;;6.10;3.00;;;9.90;83.90;;;;;;5072326;28;20070;-77
2021/11/29 01:25:54;;;;;;;6.97;2.65;;;10.00;84.00;;;;;;5073387;28;20024;-77
2021/11/29 01:28:21;;;;;;;5.93;2.80;;;9.90;83.90;;;;;;5071842;28;20039;-77
2021/11/29 01:30:47;;;;;;;5.47;2.80;;;9.90;83.90;;;;;;5072007;28;20116;-77
2021/11/29 01:33:13;;;;;;;6.25;2.90;;;9.90;83.90;;;;;;5072123;28;20027;-77
2021/11/29 01:35:39;;;;;;;4.35;2.72;;;9.90;83.80;;;;;;5072000;28;20020;-78
2021/11/29 01:38:05;;;;;;;6.32;2.90;;;10.00;83.90;;;;;;5071677;28;20170;-76
2021/11/29 01:40:31;;;;;;;5.63;2.90;;;10.00;83.90;;;;;;5073170;28;20126;-78
2021/11/29 01:42:59;;;;;;;5.30;2.60;;;10.00;83.90;;;;;;5073324;28;20032;-76
2021/11/29 01:45:28;;;;;;;4.78;2.63;;;10.10;83.90;;;;;;5073094;28;20035;-78
2021/11/29 01:47:54;;;;;;;4.88;2.67;;;9.90;83.80;;;;;;5071015;28;20409;-77
2021/11/29 01:50:20;;;;;;;6.25;2.70;;;9.90;83.70;;;;;;5071784;28;20024;-77
2021/11/29 01:52:46;;;;;;;5.18;2.85;;;10.00;83.80;;;;;;5071998;28;20115;-77
2021/11/29 01:55:11;;;;;;;5.15;2.60;;;10.00;83.70;;;;;;5071823;28;20063;-77
2021/11/29 01:57:37;;;;;;;5.82;3.03;;;10.00;83.70;;;;;;5071515;28;20044;-77
2021/11/29 02:00:07;;;;;;;4.50;2.55;;;10.00;83.70;;;;;;5071710;28;20523;-77
2021/11/29 02:02:33;;;;;;;5.07;2.55;;;10.00;83.70;;;;;;5071818;28;20541;-78
2021/11/29 02:04:59;;;;;;;5.13;2.75;;;10.00;84.20;;;;;;5071915;28;20067;-77
2021/11/29 02:07:26;;;;;;;5.95;3.08;;;9.90;83.60;;;;;;5071787;28;20027;-77
2021/11/29 02:09:52;;;;;;;5.53;2.80;;;10.10;83.70;;;;;;5072786;28;20477;-77
2021/11/29 02:12:19;;;;;;;5.53;3.00;;;9.90;83.60;;;;;;5072902;28;20032;-77
2021/11/29 02:14:46;;;;;;;4.85;2.80;;;10.00;83.70;;;;;;5071364;28;20029;-77
2021/11/29 02:17:12;;;;;;;5.82;3.17;;;10.10;83.80;;;;;;5072631;28;20375;-77
2021/11/29 02:19:41;;;;;;;5.88;3.00;;;10.10;83.70;;;;;;5071488;28;20023;-77
2021/11/29 02:22:07;;;;;;;5.28;2.70;;;10.00;83.70;;;;;;5072659;28;20013;-77
2021/11/29 02:24:33;;;;;;;4.78;2.63;;;10.00;83.70;;;;;;5072772;28;20043;-77
2021/11/29 02:26:58;;;;;;;7.15;3.35;;;9.90;83.70;;;;;;5071308;28;20579;-77
2021/11/29 02:29:24;;;;;;;7.60;3.38;;;10.10;83.70;;;;;;5071321;28;20020;-77
2021/11/29 02:31:50;;;;;;;5.43;2.92;;;10.00;83.60;;;;;;5072590;28;20078;-77
2021/11/29 02:34:22;;;;;;;5.88;2.80;;;10.10;83.70;;;;;;5071338;28;20028;-77
2021/11/29 02:36:49;;;;;;;5.93;2.72;;;10.00;83.60;;;;;;5071011;28;20070;-77
2021/11/29 02:39:16;;;;;;;6.38;2.90;;;10.00;83.60;;;;;;5071025;28;20237;-77
2021/11/29 02:41:43;;;;;;;5.20;2.88;;;9.90;83.50;;;;;;5071224;28;20028;-77
2021/11/29 02:44:09;;;;;;;5.35;2.75;;;10.00;83.50;;;;;;5071268;28;20020;-77
2021/11/29 02:46:35;;;;;;;5.70;2.97;;;10.00;83.50;;;;;;5071062;28;20486;-78
2021/11/29 02:49:01;;;;;;;4.68;2.58;;;10.00;83.50;;;;;;5072302;28;20051;-77
2021/11/29 02:51:39;;;;;;;5.57;2.75;;;10.00;83.50;;;;;;5071194;28;20032;-78
2021/11/29 02:54:08;;;;;;;5.63;2.83;;;9.90;83.40;;;;;;5071200;28;20055;-77
2021/11/29 02:56:39;;;;;;;5.18;2.88;;;9.90;83.40;;;;;;5071118;28;20020;-76
2021/11/29 02:59:08;;;;;;;6.28;2.83;;;9.90;83.40;;;;;;5072744;28;20397;-77
2021/11/29 03:01:34;;;;;;;6.13;2.72;;;10.00;83.40;;;;;;5074962;28;20028;-77
2021/11/29 03:04:00;;;;;;;5.68;2.90;;;10.10;83.50;;;;;;5075063;28;20366;-76
2021/11/29 03:06:26;;;;;;;4.85;2.70;;;10.00;83.40;;;;;;5075019;28;20035;-76
2021/11/29 03:08:51;;;;;;;5.88;2.80;;;10.00;83.30;;;;;;5076409;28;20028;-77
2021/11/29 03:11:18;;;;;;;6.78;3.08;;;10.00;83.30;;;;;;5074890;28;20025;-77
2021/11/29 03:13:44;;;;;;;5.63;2.95;;;9.80;83.20;;;;;;5074858;28;20099;-76
2021/11/29 03:16:11;;;;;;;5.13;2.90;;;10.00;83.40;;;;;;5074747;28;20055;-77
2021/11/29 03:18:42;;;;;;;6.15;2.72;;;10.10;83.40;;;;;;5077131;28;20477;-77
2021/11/29 03:21:09;;;;;;;5.38;2.70;;;10.00;83.40;;;;;;5096143;28;20070;-77
2021/11/29 03:23:36;;;;;;;6.47;2.63;;;10.00;83.40;;;;;;5076380;28;20078;-77
2021/11/29 03:26:07;;;;;;;4.70;2.53;;;10.00;83.40;;;;;;5074883;28;20052;-76
2021/11/29 03:28:40;;;;;;;6.20;2.92;;;10.10;83.40;;;;;;5075547;28;20029;-77
2021/11/29 03:31:07;;;;;;;7.35;2.92;;;10.10;83.40;;;;;;5074677;28;20032;-77
2021/11/29 03:33:34;;;;;;;4.97;2.50;;;10.00;83.40;;;;;;5074418;28;20116;-76
2021/11/29 03:36:00;;;;;;;6.65;2.88;;;10.00;83.30;;;;;;5074581;28;20025;-77
2021/11/29 03:38:26;;;;;;;4.85;2.53;;;10.00;83.30;;;;;;5073980;28;20115;-77
2021/11/29 03:40:52;;;;;;;5.13;2.38;;;10.00;83.30;;;;;;5074351;28;20116;-76
2021/11/29 03:43:17;;;;;;;5.32;2.40;;;10.00;83.30;;;;;;5074380;28;20436;-77
2021/11/29 03:45:43;;;;;;;6.20;2.60;;;10.00;83.30;;;;;;5074136;28;20025;-77
2021/11/29 03:48:09;;;;;;;4.97;2.42;;;9.90;83.20;;;;;;5073898;28;20035;-77
2021/11/29 03:50:34;;;;;;;5.40;2.67;;;9.90;83.20;;;;;;5074336;28;20616;-76
2021/11/29 03:53:00;;;;;;;5.50;2.70;;;10.00;83.30;;;;;;5074219;28;20017;-77
2021/11/29 03:55:26;;;;;;;5.40;2.33;;;10.00;83.30;;;;;;5073994;28;20020;-77
2021/11/29 03:57:51;;;;;;;4.85;2.45;;;10.00;83.30;;;;;;5075038;28;20497;-77
2021/11/29 04:00:18;;;;;;;4.75;2.05;;;10.00;83.30;;;;;;5073918;28;20046;-77
2021/11/29 04:02:44;;;;;;;5.63;2.67;;;10.00;83.40;;;;;;5073937;28;20056;-77
2021/11/29 04:05:10;;;;;;;6.18;2.50;;;10.00;83.40;;;;;;5075087;28;20103;-76
2021/11/29 04:07:35;;;;;;;5.15;2.58;;;10.00;83.40;;;;;;5073607;28;20021;-76
2021/11/29 04:10:02;;;;;;;5.20;2.30;;;10.00;83.40;;;;;;5072923;28;20124;-77
2021/11/29 04:12:27;;;;;;;4.65;2.33;;;10.00;83.40;;;;;;5073524;28;20486;-77
2021/11/29 04:14:53;;;;;;;5.55;2.13;;;10.00;83.40;;;;;;5090398;22;20044;-76
2021/11/29 04:17:18;;;;;;;5.90;2.65;;;10.00;83.40;;;;;;5070569;28;20081;-75
2021/11/29 04:19:46;;;;;;;5.63;2.55;;;10.00;83.40;;;;;;5073448;28;20504;-77
2021/11/29 04:22:13;;;;;;;5.50;2.70;;;10.00;83.40;;;;;;5073379;28;20016;-77
2021/11/29 04:24:41;;;;;;;4.63;2.35;;;10.00;83.50;;;;;;5073247;28;20025;-77
2021/11/29 04:27:06;;;;;;;6.65;2.42;;;10.00;83.50;;;;;;5073093;28;20024;-77
2021/11/29 04:29:36;;;;;;;4.57;2.13;;;10.00;83.50;;;;;;5074427;28;20043;-77
2021/11/29 04:32:02;;;;;;;5.90;2.35;;;10.00;83.50;;;;;;5074434;28;20024;-77
2021/11/29 04:34:28;;;;;;;7.40;2.50;;;10.00;83.40;;;;;;5073058;28;20111;-77
2021/11/29 04:36:53;;;;;;;6.97;2.30;;;10.00;83.40;;;;;;5072945;28;20438;-77
2021/11/29 04:39:21;;;;;;;5.57;2.20;;;10.00;83.40;;;;;;5072906;28;20103;-77
2021/11/29 04:41:47;;;;;;;7.18;2.38;;;10.00;83.40;;;;;;5073142;28;20512;-76
2021/11/29 04:44:13;;;;;;;4.53;2.20;;;9.90;83.40;;;;;;5074164;28;20078;-77
2021/11/29 04:46:38;;;;;;;5.95;2.30;;;9.90;83.40;;;;;;5073693;28;20028;-77
2021/11/29 04:49:04;;;;;;;5.40;2.10;;;10.00;83.50;;;;;;5074025;28;20032;-78
2021/11/29 04:51:30;;;;;;;5.22;2.20;;;10.00;83.40;;;;;;5073940;28;20024;-79
2021/11/29 04:53:56;;;;;;;4.38;1.98;;;10.00;83.40;;;;;;5072713;28;20031;-77
2021/11/29 04:56:22;;;;;;;5.20;2.42;;;10.00;83.40;;;;;;5072679;28;20116;-77
2021/11/29 04:58:48;;;;;;;7.50;2.88;;;10.00;83.40;;;;;;5072415;28;20025;-77
2021/11/29 05:01:14;;;;;;;3.55;1.98;;;9.90;83.40;;;;;;5055856;28;20063;-77
2021/11/29 05:03:39;;;;;;;3.72;1.92;;;10.00;83.40;;;;;;5052528;28;20404;-76
2021/11/29 05:06:05;;;;;;;4.03;2.10;;;10.00;83.40;;;;;;5053597;28;20070;-77
2021/11/29 05:08:32;;;;;;;5.13;2.10;;;9.80;83.30;;;;;;5053529;28;20449;-76
2021/11/29 05:10:58;;;;;;;4.88;2.17;;;10.00;83.40;;;;;;5052364;28;20446;-76
2021/11/29 05:13:24;;;;;;;3.65;1.90;;;10.00;83.40;;;;;;5053553;28;20032;-76
2021/11/29 05:15:50;;;;;;;4.47;1.95;;;10.00;83.40;;;;;;5068655;28;20444;-76
2021/11/29 05:18:15;;;;;;;5.28;1.95;;;10.00;83.40;;;;;;5051981;28;20025;-76
2021/11/29 05:20:41;;;;;;;4.43;2.17;;;10.00;83.40;;;;;;5052141;28;20171;-77
2021/11/29 05:23:07;;;;;;;4.93;2.10;;;10.00;83.50;;;;;;5052114;28;20048;-77
2021/11/29 05:25:33;;;;;;;4.30;2.13;;;10.00;83.40;;;;;;5068665;28;20025;-76
2021/11/29 05:27:58;;;;;;;4.40;2.00;;;10.00;83.30;;;;;;5068465;28;20119;-75
2021/11/29 05:30:24;;;;;;;3.50;1.70;;;10.00;83.20;;;;;;5068121;28;20021;-76
2021/11/29 05:32:51;;;;;;;5.07;2.10;;;10.00;83.00;;;;;;5068495;28;20025;-77
2021/11/29 05:35:17;;;;;;;5.10;1.92;;;10.00;83.00;;;;;;5051800;28;20474;-76
2021/11/29 05:37:42;;;;;;;4.85;1.80;;;10.20;83.00;;;;;;5052583;28;20036;-76
2021/11/29 05:40:09;;;;;;;6.00;2.28;;;10.10;82.90;;;;;;5053151;28;20033;-76
2021/11/29 05:42:34;;;;;;;4.85;2.05;;;10.10;82.80;;;;;;5051787;28;20111;-76
2021/11/29 05:45:00;;;;;;;4.85;2.00;;;10.10;82.90;;;;;;5051641;28;20060;-76
2021/11/29 05:47:26;;;;;;;5.57;1.70;;;10.10;82.80;;;;;;5053331;28;20029;-77
2021/11/29 05:49:51;;;;;;;5.47;2.33;;;10.10;82.70;;;;;;5051591;28;20082;-78
2021/11/29 05:52:17;;;;;;;5.70;2.42;;;10.10;82.70;;;;;;5049458;28;20078;-77
2021/11/29 05:54:46;;;;;;;7.40;2.20;;;10.20;82.80;;;;;;5064911;28;20029;-77
2021/11/29 05:57:13;;;;;;;8.95;2.30;;;10.10;82.60;;;;;;5064707;28;20116;-78
2021/11/29 05:59:38;;;;;;;12.05;2.42;;;10.10;81.50;;;;;;5049338;28;20021;-78
2021/11/29 06:02:04;;;;;;;17.58;2.50;;;10.10;81.80;;;;;;5047917;28;20029;-77
2021/11/29 06:04:30;;;;;;;11.52;2.58;;;10.00;81.90;;;;;;5053149;28;20094;-78
2021/11/29 06:06:55;;;;;;;10.65;2.50;;;10.00;82.00;;;;;;5067803;28;20120;-77
2021/11/29 06:09:21;;;;;;;14.27;2.33;;;10.10;82.00;;;;;;5068044;28;20052;-77
2021/11/29 06:11:47;;;;;;;10.27;2.28;;;10.10;82.10;;;;;;5063361;28;20481;-77
2021/11/29 06:14:12;;;;;;;9.82;2.05;;;10.00;82.10;;;;;;5068245;28;20466;-77
2021/11/29 06:16:38;;;;;;;10.35;2.53;;;10.00;82.20;;;;;;5066885;28;20127;-77
2021/11/29 06:19:04;;;;;;;7.28;2.40;;;10.00;82.40;;;;;;5067499;28;20382;-76
2021/11/29 06:21:29;;;;;;;10.98;2.35;;;10.00;82.60;;;;;;5067037;28;20058;-77
2021/11/29 06:23:56;;;;;;;8.98;2.03;;;9.90;83.10;;;;;;5067167;28;20166;-76
2021/11/29 06:26:22;;;;;;;6.88;2.10;;;10.00;83.00;;;;;;5066810;28;20024;-76
2021/11/29 06:28:48;;;;;;;5.90;1.77;;;9.90;83.10;;;;;;5066641;28;20020;-77
2021/11/29 06:31:14;;;;;;;8.13;1.90;;;9.90;83.10;;;;;;5066799;28;20037;-76
2021/11/29 06:33:40;;;;;;;6.85;2.55;;;9.90;83.30;;;;;;5066337;28;20370;-76
2021/11/29 06:36:07;;;;;;;5.55;1.80;;;10.00;83.40;;;;;;5066805;28;20035;-77
2021/11/29 06:38:32;;;;;;;7.78;2.10;;;9.90;83.40;;;;;;5066684;28;20101;-77
2021/11/29 06:40:58;;;;;;;8.30;1.90;;;9.90;83.40;;;;;;5066901;28;20048;-77
2021/11/29 06:43:26;;;;;;;5.65;2.05;;;9.90;83.50;;;;;;5067399;28;20036;-77
2021/11/29 06:45:52;;;;;;;7.45;1.60;;;9.80;83.40;;;;;;5065062;28;20031;-78
2021/11/29 06:48:19;;;;;;;6.43;2.47;;;9.90;83.40;;;;;;5065117;28;20028;-77
2021/11/29 06:50:46;;;;;;;5.93;2.17;;;9.90;83.40;;;;;;5063961;28;20485;-79
2021/11/29 06:53:12;;;;;;;6.55;2.17;;;9.90;83.40;;;;;;5065444;28;20131;-76
2021/11/29 06:55:38;;;;;;;11.30;2.30;;;9.90;83.40;;;;;;5065741;28;20093;-78
2021/11/29 06:58:04;;;;;;;5.65;2.00;;;9.90;83.40;;;;;;5063614;28;20485;-78
2021/11/29 07:00:31;;;;;;;6.85;1.80;;;9.90;83.40;;;;;;5064562;28;20039;-77
2021/11/29 07:02:57;;;;;;;6.00;2.05;;;9.90;83.40;;;;;;5065712;28;20086;-76
2021/11/29 07:05:25;;;;;;;5.03;1.77;;;9.90;83.40;;;;;;5065512;28;20363;-78
2021/11/29 07:07:52;;;;;;;5.78;1.60;;;9.90;83.60;;;;;;5060933;28;20036;-78
2021/11/29 07:10:20;;;;;;;6.22;2.05;;;9.90;83.50;;;;;;5045370;28;20025;-78
2021/11/29 07:12:47;;;;;;;6.53;1.77;;;9.80;83.50;;;;;;5045593;28;20056;-78
2021/11/29 07:15:14;;;;;;;4.47;1.65;;;9.90;83.60;;;;;;5045481;28;20474;-77
2021/11/29 07:17:41;;;;;;;6.57;2.28;;;9.90;83.50;;;;;;5045608;28;20399;-78
2021/11/29 07:20:08;;;;;;;4.20;1.80;;;9.90;83.60;;;;;;5044063;28;20029;-78
2021/11/29 07:22:34;;;;;;;7.20;1.85;;;9.90;83.60;;;;;;5060643;28;20029;-77
2021/11/29 07:25:04;;;;;;;7.88;2.10;;;10.00;83.60;;;;;;5045248;28;20032;-78
2021/11/29 07:27:31;;;;;;;4.57;1.80;;;9.90;83.60;;;;;;5043684;28;20025;-77
2021/11/29 07:29:58;;;;;;;4.63;1.70;;;9.80;83.50;;;;;;5060595;28;20509;-77
2021/11/29 07:32:24;;;;;;;5.75;2.10;;;9.90;83.50;;;;;;5045503;28;20036;-78
2021/11/29 07:34:50;;;;;;;5.55;2.25;;;9.90;83.50;;;;;;5043577;28;20036;-78
2021/11/29 07:37:16;;;;;;;6.95;2.30;;;9.80;83.50;;;;;;5044981;28;20029;-78
2021/11/29 07:39:43;;;;;;;6.45;1.90;;;9.90;83.50;;;;;;5043798;28;20474;-78
2021/11/29 07:42:09;;;;;;;6.88;2.20;;;10.00;83.60;;;;;;5043937;28;20117;-78
2021/11/29 07:44:35;;;;;;;5.50;2.15;;;9.90;83.50;;;;;;5060330;28;20099;-77
2021/11/29 07:47:01;;;;;;;5.72;2.10;;;9.90;83.50;;;;;;5046310;28;20060;-78
2021/11/29 07:49:27;;;;;;;4.72;2.00;;;9.90;83.40;;;;;;5047310;28;20575;-77
2021/11/29 07:51:53;;;;;;;4.72;2.00;;;9.90;83.40;;;;;;5047422;28;20810;-79
2021/11/29 07:54:19;;;;;;;6.43;2.05;;;9.90;83.40;;;;;;5048530;28;20430;-78
2021/11/29 07:56:45;;;;;;;4.80;2.10;;;10.00;83.50;;;;;;5048083;28;20036;-78
2021/11/29 07:59:11;;;;;;;5.82;2.38;;;9.90;83.50;;;;;;5064333;28;20029;-78
2021/11/29 08:01:36;;;;;;;4.53;1.80;;;9.90;83.50;;;;;;5047068;28;20124;-78
2021/11/29 08:04:03;;;;;;;4.25;2.05;;;9.90;83.50;;;;;;5048559;28;20033;-79
2021/11/29 08:06:29;;;;;;;6.10;1.98;;;9.90;83.50;;;;;;5066880;28;20044;-79
2021/11/29 08:08:55;;;;;;;7.03;1.85;;;9.70;83.50;;;;;;5068027;28;20028;-79
2021/11/29 08:11:21;;;;;;;4.55;1.88;;;10.00;83.60;;;;;;5068922;28;20027;-78
2021/11/29 08:13:46;;;;;;;5.88;2.17;;;9.90;83.60;;;;;;5069572;28;20026;-79
2021/11/29 08:16:13;;;;;;;5.90;1.95;;;9.90;83.70;;;;;;5069379;28;20032;-78
2021/11/29 08:18:39;;;;;;;4.30;1.70;;;9.90;83.60;;;;;;5070222;28;20016;-78
2021/11/29 08:21:05;;;;;;;6.85;2.13;;;9.90;83.60;;;;;;5070833;28;20036;-79
2021/11/29 08:23:31;;;;;;;5.47;2.03;;;9.80;83.60;;;;;;5069022;28;20029;-77
2021/11/29 08:25:57;;;;;;;5.57;2.00;;;9.90;83.70;;;;;;5069161;28;20062;-77
2021/11/29 08:28:23;;;;;;;5.20;2.15;;;9.80;83.70;;;;;;5070007;28;20057;-78
2021/11/29 08:30:49;;;;;;;5.18;2.17;;;9.90;83.70;;;;;;5069015;28;20437;-78
2021/11/29 08:33:14;;;;;;;5.07;2.00;;;9.90;83.70;;;;;;5069875;28;20601;-79
2021/11/29 08:35:41;;;;;;;5.68;2.08;;;9.80;83.60;;;;;;5068080;28;20024;-80
2021/11/29 08:38:07;;;;;;;5.65;2.00;;;10.00;83.70;;;;;;5067395;28;20023;-77
2021/11/29 08:40:34;;;;;;;5.00;2.15;;;9.90;83.70;;;;;;5067669;28;20059;-79
2021/11/29 08:43:07;;;;;;;5.22;2.00;;;9.90;83.70;;;;;;5066665;28;20035;-78
2021/11/29 08:45:35;;;;;;;6.75;2.05;;;9.90;83.60;;;;;;5067560;28;20024;-77
2021/11/29 08:48:04;;;;;;;6.05;1.95;;;10.00;83.60;;;;;;5067240;28;20028;-79
2021/11/29 08:50:30;;;;;;;5.70;1.83;;;10.00;83.60;;;;;;5067453;28;20024;-77
2021/11/29 08:52:57;;;;;;;5.53;2.35;;;9.90;83.60;;;;;;5067588;28;20028;-78
2021/11/29 08:55:23;;;;;;;5.05;2.17;;;9.80;83.50;;;;;;5067420;28;20059;-77
2021/11/29 08:57:48;;;;;;;6.07;2.15;;;9.90;83.60;;;;;;5065075;28;20497;-78
2021/11/29 09:00:17;;;;;;;5.57;2.20;;;9.90;83.60;;;;;;5067311;28;20067;-77
2021/11/29 09:02:44;;;;;;;5.28;1.90;;;9.90;83.60;;;;;;5065749;28;20116;-77
2021/11/29 09:05:11;;;;;;;3.78;1.90;;;9.90;83.70;;;;;;5066050;28;20032;-77
2021/11/29 09:07:37;;;;;;;4.85;2.22;;;9.90;83.70;;;;;;5067108;28;20048;-77
2021/11/29 09:10:08;;;;;;;5.45;1.98;;;10.00;83.80;;;;;;5067296;28;20551;-78
2021/11/29 09:12:35;;;;;;;7.07;2.72;;;9.90;83.70;;;;;;5067164;28;20055;-77
2021/11/29 09:15:00;;;;;;;5.93;2.28;;;9.90;83.70;;;;;;5065438;28;20033;-77
2021/11/29 09:17:26;;;;;;;5.22;2.28;;;10.00;83.70;;;;;;5066805;28;20035;-78
2021/11/29 09:19:53;;;;;;;4.75;2.40;;;10.00;83.70;;;;;;5066873;28;20064;-79
2021/11/29 09:22:19;;;;;;;4.15;2.00;;;10.00;83.70;;;;;;5065517;28;20561;-76
2021/11/29 09:24:45;;;;;;;5.75;2.30;;;9.80;83.60;;;;;;5067225;28;20108;-77
2021/11/29 09:27:10;;;;;;;6.53;2.72;;;9.90;83.70;;;;;;5066424;28;20024;-77
2021/11/29 09:29:36;;;;;;;4.13;2.08;;;9.80;83.70;;;;;;5066729;28;20024;-78
2021/11/29 09:32:04;;;;;;;5.82;2.33;;;10.00;83.80;;;;;;5066775;28;20032;-78
2021/11/29 09:34:31;;;;;;;5.25;2.63;;;9.90;83.70;;;;;;5066599;28;20486;-77
2021/11/29 09:36:57;;;;;;;4.97;2.13;;;9.90;83.70;;;;;;5065021;28;20833;-78
2021/11/29 09:39:23;;;;;;;6.70;2.55;;;9.90;83.70;;;;;;5062268;28;20087;-77
2021/11/29 09:41:48;;;;;;;5.00;2.45;;;10.00;83.80;;;;;;5067336;28;20618;-78
2021/11/29 09:44:14;;;;;;;6.15;2.55;;;9.80;83.70;;;;;;5068818;28;20035;-78
2021/11/29 09:46:40;;;;;;;5.32;2.65;;;9.80;83.70;;;;;;5066841;28;20064;-77
2021/11/29 09:49:05;;;;;;;5.03;2.55;;;9.80;83.70;;;;;;5067847;28;20028;-78
2021/11/29 09:51:34;;;;;;;4.85;2.40;;;9.90;84.20;;;;;;5066673;28;20064;-78
2021/11/29 09:54:00;;;;;;;7.22;2.70;;;9.90;83.70;;;;;;5065067;28;20505;-77
2021/11/29 09:56:26;;;;;;;6.53;2.70;;;9.90;83.70;;;;;;5064704;28;20024;-78
2021/11/29 09:58:51;;;;;;;5.13;2.70;;;9.90;83.80;;;;;;5066479;28;20052;-77
2021/11/29 10:01:17;;;;;;;5.72;2.67;;;9.90;83.80;;;;;;5064544;28;20489;-77
2021/11/29 10:03:43;;;;;;;5.90;2.28;;;9.90;83.70;;;;;;5066200;28;20146;-77
2021/11/29 10:06:09;;;;;;;7.22;2.67;;;9.80;83.60;;;;;;5064893;28;20545;-77
2021/11/29 10:08:39;;;;;;;5.43;2.72;;;10.00;83.80;;;;;;5063932;28;20043;-78
2021/11/29 10:11:12;;;;;;;5.53;2.50;;;9.90;83.70;;;;;;5064999;28;20189;-77
2021/11/29 10:13:57;;;;;;;6.95;3.05;;;9.90;83.70;;;;;;5064683;28;20024;-77
2021/11/29 10:16:42;;;;;;;7.00;2.85;;;10.00;83.80;;;;;;5065880;28;20509;-79
2021/11/29 10:19:31;;;;;;;5.35;2.50;;;9.90;83.80;;;;;;5065938;28;20021;-77
2021/11/29 10:22:21;;;;;;;4.57;2.47;;;9.90;83.80;;;;;;5064550;28;20307;-77
2021/11/29 10:24:49;;;;;;;5.22;2.67;;;9.90;83.70;;;;;;5065967;28;20260;-77
2021/11/29 10:27:16;;;;;;;5.05;2.67;;;9.90;83.70;;;;;;5064364;28;20056;-77
2021/11/29 10:29:54;;;;;;;6.38;2.80;;;10.00;83.80;;;;;;5064331;28;20861;-76
2021/11/29 10:32:55;;;;;;;5.20;2.85;;;9.90;83.70;;;;;;5064365;28;20093;-80
2021/11/29 10:35:36;;;;;;;5.68;2.88;;;10.00;83.70;;;;;;4967413;28;20022;-77
2021/11/29 10:38:04;;;;;;;6.00;3.10;;;9.90;84.20;;;;;;5053193;28;20179;-77
2021/11/29 10:40:30;;;;;;;5.90;3.15;;;10.00;83.70;;;;;;5065287;28;20039;-80
2021/11/29 10:43:05;;;;;;;6.93;2.92;;;9.80;83.70;;;;;;5065126;28;20509;-79
2021/11/29 10:45:30;;;;;;;5.85;2.97;;;10.00;83.80;;;;;;5067571;28;20036;-79
2021/11/29 10:47:56;;;;;;;5.47;3.10;;;9.90;83.70;;;;;;5068284;28;20516;-79
2021/11/29 10:50:26;;;;;;;5.57;3.20;;;9.90;83.70;;;;;;5069015;28;20377;-79
2021/11/29 10:53:08;;;;;;;6.18;3.22;;;10.00;83.70;;;;;;5067466;28;20017;-78
2021/11/29 10:55:53;;;;;;;;;;;10.00;83.70;;;;;;5068322;28;20021;-79
2021/11/29 10:58:19;;;;;;;13.48;3.55;;;9.90;83.60;;;;;;5067578;28;19916;-79
2021/11/29 11:00:44;;;;;;;11.40;3.13;;;10.00;83.60;;;;;;5067265;28;20033;-79
2021/11/29 11:03:10;;;;;;;7.15;3.30;;;9.90;83.50;;;;;;5067125;28;20028;-78
2021/11/29 11:05:57;;;;;;;8.10;3.65;;;10.00;83.60;;;;;;5068277;28;20118;-78
2021/11/29 11:08:34;;;;;;;7.53;3.40;;;9.90;83.50;;;;;;5067354;28;20111;-78
2021/11/29 11:10:59;;;;;;;7.50;3.53;;;10.00;83.60;;;;;;5067095;28;20040;-79
2021/11/29 11:13:25;;;;;;;7.32;3.53;;;10.00;83.60;;;;;;5069757;28;20021;-79
2021/11/29 11:15:51;;;;;;;8.45;3.47;;;10.00;83.60;;;;;;5066904;28;20036;-79
2021/11/29 11:18:16;;;;;;;13.32;3.90;;;10.00;83.60;;;;;;5105420;22;20489;-81
2021/11/29 11:20:42;;;;;;;7.80;3.25;;;9.90;83.50;;;;;;5113368;28;20051;-81
2021/11/29 11:23:08;;;;;;;8.45;3.45;;;10.10;83.60;;;;;;5115971;28;20028;-81
2021/11/29 11:25:35;;;;;;;8.48;3.40;;;10.00;83.60;;;;;;5114838;28;20020;-80
2021/11/29 11:28:08;;;;;;;7.00;3.63;;;9.90;83.50;;;;;;5114295;28;20051;-80
2021/11/29 11:30:37;;;;;;;11.50;3.50;;;10.00;83.60;;;;;;5114809;28;20122;-80
2021/11/29 11:33:09;;;;;;;8.90;4.47;;;10.00;83.50;;;;;;5114310;28;20020;-81
2021/11/29 11:35:36;;;;;;;;;;;10.00;83.50;;;;;;5114890;28;20028;-81
2021/11/29 11:38:10;;;;;;;6.75;3.22;;;10.00;83.60;;;;;;5114122;28;19951;-81
2021/11/29 11:40:39;;;;;;;6.68;3.58;;;9.90;83.50;;;;;;5114546;28;20072;-81
2021/11/29 11:43:08;;;;;;;8.63;4.05;;;10.00;83.50;;;;;;5114387;28;20062;-81
2021/11/29 11:45:36;;;;;;;6.72;3.95;;;9.90;83.50;;;;;;5114235;28;20031;-81
2021/11/29 11:48:03;;;;;;;6.68;4.00;;;10.00;83.60;;;;;;5114112;28;20023;-81
2021/11/29 11:50:33;;;;;;;7.75;3.80;;;9.90;83.60;;;;;;5114280;28;20024;-80
2021/11/29 11:53:01;;;;;;;7.10;3.90;;;10.00;83.60;;;;;;5115841;28;20539;-81
2021/11/29 11:55:34;;;;;;;7.43;4.10;;;9.90;83.60;;;;;;5114506;28;20035;-81
2021/11/29 11:58:03;;;;;;;6.20;3.70;;;9.90;83.60;;;;;;5114635;28;20020;-81
2021/11/29 12:00:42;;;;;;;6.90;4.00;;;9.90;83.60;;;;;;5114509;28;20039;-81
2021/11/29 12:03:17;;;;;;;7.53;4.00;;;10.00;83.60;;;;;;5115224;28;20216;-81
2021/11/29 12:05:52;;;;;;;6.78;3.75;;;10.10;83.50;;;;;;5113902;28;20024;-81
2021/11/29 12:08:34;;;;;;;7.93;4.22;;;10.10;83.40;;;;;;5113608;28;20095;-81
2021/11/29 12:11:00;;;;;;;;;;;10.10;83.30;;;;;;5115640;28;20034;-81
2021/11/29 12:13:26;;;;;;;6.65;3.83;;;10.10;83.20;;;;;;5113727;28;19911;-81
2021/11/29 12:15:57;;;;;;;6.18;3.70;;;10.20;83.20;;;;;;5114131;28;20016;-81
2021/11/29 12:18:41;;;;;;;7.00;3.92;;;10.10;83.10;;;;;;5113529;28;20028;-81
2021/11/29 12:21:16;;;;;;;6.28;3.88;;;10.10;83.00;;;;;;5113634;28;20038;-81
2021/11/29 12:24:02;;;;;;;6.43;3.92;;;10.20;83.00;;;;;;5113587;28;20020;-80
2021/11/29 12:26:43;;;;;;;7.75;3.85;;;10.20;82.90;;;;;;5112993;28;20044;-80
2021/11/29 12:29:24;;;;;;;;;;;10.20;83.00;;;;;;5113821;28;20032;-80
2021/11/29 12:32:02;;;;;;;7.22;3.63;;;10.20;83.00;;;;;;5111927;28;20341;-78
2021/11/29 12:34:46;;;;;;;7.30;3.70;;;10.20;83.00;;;;;;5113377;28;20442;-80
2021/11/29 12:37:13;;;;;;;6.43;3.85;;;10.10;82.90;;;;;;5113056;28;20022;-80
2021/11/29 12:39:45;;;;;;;6.80;4.00;;;10.20;82.90;;;;;;5114450;27;20028;-81
2021/11/29 12:42:20;;;;;;;6.90;3.75;;;10.20;82.90;;;;;;5113242;28;20028;-80
2021/11/29 12:44:57;;;;;;;7.57;4.07;;;10.00;82.80;;;;;;5114395;28;20020;-80
2021/11/29 12:47:47;;;;;;;6.40;4.00;;;10.20;82.90;;;;;;5112966;28;20169;-80
2021/11/29 12:50:32;;;;;;;6.60;3.88;;;10.20;82.90;;;;;;5112337;28;20036;-81
2021/11/29 12:53:11;;;;;;;6.95;4.03;;;10.10;82.90;;;;;;5113079;28;20160;-80